Tuesday, December 18, 2018, 4:17 PM EST
Back to Local

KSWF, Newburgh / Stewart

Location: New Windsor, NY, United States Lat: 41.5
Local Time: 4:17 PM EST (21:17 GMT) Lon: -74.1
Time Zone: US/Eastern Elev: 492 ft

Show me the last for .
Show Decoded

2018-12-18 15:45 METAR KSWF 182045Z 29012G20KT 20SM SKC M02/M09 A3008 =
2018-12-18 14:45 METAR KSWF 181945Z 30016G22KT 20SM SKC M01/M09 A3004 =
2018-12-18 13:45 METAR KSWF 181845Z 31010G16KT 20SM SKC 00/M09 A3003 =
2018-12-18 12:45 METAR KSWF 181745Z 31010KT 10SM FEW050 00/M09 A3003 =
2018-12-18 11:45 METAR KSWF 181645Z 32012G20KT 10SM FEW040 M01/M09 A3003 =
2018-12-18 10:45 METAR KSWF 181545Z 32012G20KT 20SM FEW040 M02/M09 A3004 =
2018-12-18 09:45 METAR KSWF 181445Z 32012G20KT 20SM FEW035 M03/M09 A3004 =
2018-12-18 08:45 METAR KSWF 181345Z 32012G20KT 10SM FEW035 M03/M09 A3001 =
2018-12-18 07:45 METAR KSWF 181245Z 30012G17KT 10SM SCT025 M04/M09 A2998 =
2018-12-18 06:45 METAR KSWF 181145Z 30012G20KT 10SM SCT025 M04/M09 A2998 =
2018-12-18 05:45 METAR KSWF 181045Z 32017G26KT 10SM SCT035 BKN050 M03/M08 A2992 =
2018-12-18 04:45 METAR KSWF 180945Z 32014G26KT 10SM SCT035 BKN050 M02/M08 A2988 =
2018-12-18 03:45 METAR KSWF 180845Z 32014G28KT 10SM SCT070 M02/M07 A2987 =
2018-12-18 02:45 METAR KSWF 180745Z 32010G28KT 10SM BKN070 00/M07 A2979 =
2018-12-18 01:45 METAR KSWF 180645Z 32010G28KT 10SM BKN070 00/M07 A2979 =
2018-12-18 00:45 METAR KSWF 180545Z 30015G27KT 10SM BKN070 01/M05 A2976 =
2018-12-17 23:45 METAR KSWF 180445Z 30018G29KT 10SM BKN070 02/M04 A2975 =
2018-12-17 22:45 METAR KSWF 180345Z 30015G25KT 10SM BKN070 02/M02 A2973 =
2018-12-17 21:45 METAR KSWF 180245Z 28015G22KT 10SM SCT040 BKN070 02/M01 A2974 =
2018-12-17 20:45 METAR KSWF 180145Z 30012G20KT 10SM SCT040 OVC070 03/M02 A2974 =
2018-12-17 19:45 METAR KSWF 180045Z 29010G16KT 10SM SCT040 OVC060 03/M02 A2974 =
2018-12-17 18:45 METAR KSWF 172345Z 29010KT 10SM OVC040 03/M01 A2973 =
2018-12-17 17:45 METAR KSWF 172245Z 29012G18KT 10SM BKN040 OVC060 04/M01 A2972 =
2018-12-17 16:45 METAR KSWF 172145Z 30012G20KT 10SM BKN040 OVC060 04/M01 A2970 =

Support USWX by starting your Amazon purchase here.